Time;durP1;ratioP1;P1;durP2;ratioP2;P2;SDS_P1;SDS_P2;PMS_P1;PMS_P2;Temp;Humidity;BMP_temperature;BMP_pressure;BME280_temperature;BME280_humidity;BME280_pressure;Samples;Min_cycle;Max_cycle;Signal;HPM_P1;HPM_P2
2022/06/21 00:01:31;;;;;;;9.65;3.55;;;;;;;;;;5079107;28;20040;-81
2022/06/21 00:04:30;;;;;;;7.57;3.00;;;;;;;;;;5112288;28;20048;-82
2022/06/21 00:07:24;;;;;;;7.18;2.75;;;;;;;;;;5079168;28;20571;-82
2022/06/21 00:09:51;;;;;;;6.45;2.80;;;;;;;;;;5079881;28;20032;-82
2022/06/21 00:12:43;;;;;;;7.55;3.20;;;;;;;;;;5077248;28;20048;-84
2022/06/21 00:15:11;;;;;;;7.28;3.63;;;;;;;;;;5083149;28;20044;-84
2022/06/21 00:17:42;;;;;;;7.10;3.00;;;;;;;;;;5084445;28;20479;-84
2022/06/21 00:20:14;;;;;;;6.35;3.38;;;;;;;;;;5099512;28;20931;-83
2022/06/21 00:22:41;;;;;;;5.75;2.83;;;;;;;;;;5098539;28;20127;-84
2022/06/21 00:25:33;;;;;;;8.27;2.97;;;;;;;;;;5084980;28;20880;-87
2022/06/21 00:28:01;;;;;;;9.32;3.00;;;;;;;;;;5084711;28;20123;-87
2022/06/21 00:30:29;;;;;;;7.22;3.28;;;;;;;;;;5079929;28;20113;-89
2022/06/21 00:32:57;;;;;;;6.07;2.90;;;;;;;;;;5089403;28;20041;-92
2022/06/21 00:35:26;;;;;;;9.35;3.50;;;;;;;;;;5074053;28;20117;-92
2022/06/21 00:37:54;;;;;;;10.68;3.22;;;;;;;;;;5091606;28;20036;-93
2022/06/21 00:40:47;;;;;;;13.68;3.45;;;;;;;;;;5089106;28;20044;-93
2022/06/21 00:43:23;;;;;;;11.38;3.72;;;;;;;;;;5101184;28;20946;-93
2022/06/21 00:45:52;;;;;;;8.02;3.00;;;;;;;;;;5084944;28;20064;-93
2022/06/21 00:48:22;;;;;;;9.43;3.35;;;;;;;;;;5092091;28;20611;-93
2022/06/21 00:50:57;;;;;;;9.85;3.20;;;;;;;;;;5091063;28;20037;-92
2022/06/21 00:53:49;;;;;;;6.13;3.45;;;;;;;;;;5091348;28;20089;-93
2022/06/21 00:56:26;;;;;;;6.20;3.15;;;;;;;;;;5108146;28;20044;-92
2022/06/21 00:59:26;;;;;;;10.13;3.72;;;;;;;;;;5089066;28;20036;-83
2022/06/21 01:02:06;;;;;;;7.28;3.13;;;;;;;;;;5084576;28;20044;-83
2022/06/21 01:05:04;;;;;;;7.63;3.63;;;;;;;;;;5082446;28;20063;-88
2022/06/21 01:07:33;;;;;;;9.15;3.50;;;;;;;;;;5068528;28;20440;-88
2022/06/21 01:10:09;;;;;;;7.78;4.28;;;;;;;;;;5071460;28;20047;-88
2022/06/21 01:12:45;;;;;;;12.10;3.50;;;;;;;;;;5068495;28;20063;-88
2022/06/21 01:15:43;;;;;;;10.27;3.90;;;;;;;;;;5071042;28;20390;-92
2022/06/21 01:18:16;;;;;;;6.13;3.88;;;;;;;;;;5075033;28;20033;-92
2022/06/21 01:21:12;;;;;;;8.18;3.60;;;;;;;;;;5073094;28;20037;-92
2022/06/21 01:23:39;;;;;;;9.32;3.70;;;;;;;;;;5075890;28;20047;-92
2022/06/21 01:26:36;;;;;;;12.95;3.80;;;;;;;;;;5078071;28;20820;-84
2022/06/21 01:29:06;;;;;;;12.32;4.38;;;;;;;;;;5070250;28;20048;-83
2022/06/21 01:31:35;;;;;;;11.85;4.35;;;;;;;;;;5070266;28;20486;-89
2022/06/21 01:34:09;;;;;;;7.35;3.10;;;;;;;;;;5086260;28;20045;-89
2022/06/21 01:37:13;;;;;;;10.40;3.33;;;;;;;;;;5070258;28;20050;-89
2022/06/21 01:40:25;;;;;;;11.48;4.32;;;;;;;;;;5103107;28;20040;-89
2022/06/21 01:43:02;;;;;;;8.25;3.50;;;;;;;;;;5070909;28;20466;-93
2022/06/21 01:45:38;;;;;;;7.80;3.75;;;;;;;;;;5091229;28;20672;-92
2022/06/21 01:48:41;;;;;;;10.65;3.83;;;;;;;;;;5076194;28;20029;-93
2022/06/21 01:51:15;;;;;;;16.67;4.47;;;;;;;;;;5044035;28;20044;-93
2022/06/21 01:54:11;;;;;;;9.82;3.50;;;;;;;;;;5077443;28;20915;-93
2022/06/21 01:57:03;;;;;;;8.88;3.90;;;;;;;;;;5098386;28;20037;-93
2022/06/21 01:59:58;;;;;;;14.68;3.92;;;;;;;;;;5062171;28;20048;-92
2022/06/21 02:02:38;;;;;;;9.70;3.60;;;;;;;;;;5094516;28;20055;-92
2022/06/21 02:05:13;;;;;;;12.18;3.90;;;;;;;;;;5091713;28;20094;-89
2022/06/21 02:07:51;;;;;;;10.38;3.97;;;;;;;;;;5104514;28;20044;-89
2022/06/21 02:10:27;;;;;;;7.10;3.85;;;;;;;;;;5055685;28;20044;-90
2022/06/21 02:13:11;;;;;;;7.85;3.47;;;;;;;;;;5071381;28;20052;-90
2022/06/21 02:16:22;;;;;;;12.50;3.60;;;;;;;;;;5102182;28;20054;-85
2022/06/21 02:18:55;;;;;;;8.93;3.58;;;;;;;;;;5068059;28;20036;-84
2022/06/21 02:21:34;;;;;;;10.38;3.88;;;;;;;;;;5066933;28;20036;-85
2022/06/21 02:24:01;;;;;;;11.05;4.50;;;;;;;;;;5067088;28;20036;-85
2022/06/21 02:26:33;;;;;;;10.98;4.20;;;;;;;;;;5067295;28;20061;-84
2022/06/21 02:29:25;;;;;;;9.50;3.50;;;;;;;;;;5101251;28;20051;-83
2022/06/21 02:31:59;;;;;;;12.27;4.63;;;;;;;;;;5070179;28;20089;-84
2022/06/21 02:34:32;;;;;;;14.00;3.83;;;;;;;;;;5067906;28;20041;-84
2022/06/21 02:37:01;;;;;;;14.05;3.70;;;;;;;;;;5068548;28;20521;-84
2022/06/21 02:39:36;;;;;;;12.38;4.00;;;;;;;;;;5068399;28;20110;-84
2022/06/21 02:42:28;;;;;;;7.93;3.25;;;;;;;;;;5069718;28;20036;-84
2022/06/21 02:45:01;;;;;;;7.68;3.30;;;;;;;;;;5099258;28;20040;-88
2022/06/21 02:47:39;;;;;;;14.77;3.78;;;;;;;;;;5063223;28;20035;-88
2022/06/21 02:50:46;;;;;;;13.90;3.50;;;;;;;;;;5068318;28;20534;-88
2022/06/21 02:53:22;;;;;;;12.10;3.75;;;;;;;;;;5008223;28;20053;-88
2022/06/21 02:56:04;;;;;;;10.88;3.80;;;;;;;;;;5012874;28;20546;-92
2022/06/21 02:58:39;;;;;;;11.68;3.67;;;;;;;;;;5013182;28;20446;-92
2022/06/21 03:01:28;;;;;;;10.20;4.38;;;;;;;;;;5013727;28;20042;-91
2022/06/21 03:04:27;;;;;;;8.25;3.58;;;;;;;;;;5029630;28;20554;-91
2022/06/21 03:06:55;;;;;;;11.95;3.85;;;;;;;;;;5023727;28;20052;-91
2022/06/21 03:09:24;;;;;;;11.60;3.90;;;;;;;;;;4983078;28;20109;-92
2022/06/21 03:12:00;;;;;;;7.63;3.30;;;;;;;;;;5000892;28;20496;-92
2022/06/21 03:14:36;;;;;;;13.85;3.80;;;;;;;;;;5000719;28;20044;-93
2022/06/21 03:17:09;;;;;;;11.57;4.30;;;;;;;;;;5015710;28;20045;-93
2022/06/21 03:20:01;;;;;;;12.75;3.58;;;;;;;;;;5011445;28;20061;-92
2022/06/21 03:22:34;;;;;;;12.25;3.90;;;;;;;;;;5000163;28;20106;-92
2022/06/21 03:25:05;;;;;;;12.10;3.80;;;;;;;;;;5015597;28;20041;-92
2022/06/21 03:27:49;;;;;;;9.02;3.17;;;;;;;;;;4999602;28;20038;-92
2022/06/21 03:30:19;;;;;;;10.65;4.32;;;;;;;;;;5103593;28;20044;-93
2022/06/21 03:32:50;;;;;;;12.40;3.35;;;;;;;;;;5074796;28;21000;-93
2022/06/21 03:35:43;;;;;;;10.93;3.35;;;;;;;;;;5075919;28;20103;-92
2022/06/21 03:38:39;;;;;;;13.00;3.50;;;;;;;;;;5054241;28;20033;-92
2022/06/21 03:44:27;;;;;;;12.77;3.75;;;;;;;;;;5073350;28;20474;-92
2022/06/21 03:47:00;;;;;;;7.70;3.28;;;;;;;;;;5093001;28;20036;-92
2022/06/21 03:49:54;;;;;;;13.13;3.08;;;;;;;;;;5068262;28;20044;-84
2022/06/21 03:52:42;;;;;;;10.50;3.08;;;;;;;;;;5067955;28;20127;-84
2022/06/21 03:55:30;;;;;;;10.48;3.10;;;;;;;;;;5066536;28;20036;-88
2022/06/21 03:58:04;;;;;;;12.52;3.08;;;;;;;;;;5084088;28;20540;-88
2022/06/21 04:00:58;;;;;;;13.18;3.05;;;;;;;;;;5064232;28;20049;-88
2022/06/21 04:03:31;;;;;;;12.10;3.20;;;;;;;;;;5064807;28;20426;-87
2022/06/21 04:06:26;;;;;;;10.70;3.45;;;;;;;;;;5057053;28;20047;-91
2022/06/21 04:09:05;;;;;;;12.32;3.17;;;;;;;;;;5056369;28;20052;-92
2022/06/21 04:11:42;;;;;;;14.38;3.35;;;;;;;;;;5072258;28;20048;-92
2022/06/21 04:14:27;;;;;;;10.82;3.50;;;;;;;;;;5107563;28;20048;-93
2022/06/21 04:17:31;;;;;;;9.20;3.10;;;;;;;;;;5075535;28;20123;-92
2022/06/21 04:20:38;;;;;;;10.35;2.90;;;;;;;;;;5048990;28;20049;-92
2022/06/21 04:23:24;;;;;;;12.80;4.05;;;;;;;;;;5038475;28;20069;-92
2022/06/21 04:26:17;;;;;;;12.07;2.85;;;;;;;;;;5037752;28;20510;-92
2022/06/21 04:28:59;;;;;;;12.57;3.80;;;;;;;;;;5053057;28;20045;-84
2022/06/21 04:31:40;;;;;;;10.85;3.08;;;;;;;;;;5048008;28;20068;-84
2022/06/21 04:34:21;;;;;;;10.50;3.13;;;;;;;;;;5033300;28;20087;-88
2022/06/21 04:37:15;;;;;;;14.90;3.33;;;;;;;;;;5030601;28;20065;-88
2022/06/21 04:40:14;;;;;;;12.40;3.22;;;;;;;;;;5031049;28;20074;-88
2022/06/21 04:43:12;;;;;;;10.35;4.22;;;;;;;;;;5046262;28;20666;-88
2022/06/21 04:45:58;;;;;;;7.75;2.63;;;;;;;;;;5024461;28;20049;-92
2022/06/21 04:48:34;;;;;;;10.10;3.38;;;;;;;;;;5039782;28;20077;-92
2022/06/21 04:51:11;;;;;;;14.00;3.58;;;;;;;;;;5008382;28;20084;-92
2022/06/21 04:53:54;;;;;;;10.68;3.55;;;;;;;;;;5057041;28;20144;-92
2022/06/21 04:56:24;;;;;;;12.48;3.40;;;;;;;;;;5067384;28;20040;-93
2022/06/21 04:59:47;;;;;;;12.27;2.80;;;;;;;;;;5080650;28;20108;-93
2022/06/21 05:02:50;;;;;;;11.48;2.75;;;;;;;;;;5105007;28;20037;-93
2022/06/21 05:05:43;;;;;;;9.20;2.88;;;;;;;;;;5078435;28;20040;-93
2022/06/21 05:08:19;;;;;;;15.25;2.40;;;;;;;;;;5104357;28;20105;-84
2022/06/21 05:10:55;;;;;;;12.13;2.55;;;;;;;;;;5071993;28;20057;-84
2022/06/21 05:13:34;;;;;;;8.85;2.75;;;;;;;;;;5070289;28;20032;-81
2022/06/21 05:16:36;;;;;;;13.18;2.80;;;;;;;;;;5058517;28;20504;-82
2022/06/21 05:19:23;;;;;;;8.68;2.80;;;;;;;;;;5066983;28;20044;-84
2022/06/21 05:22:27;;;;;;;14.55;3.08;;;;;;;;;;5066652;28;20036;-84
2022/06/21 05:24:57;;;;;;;10.00;2.47;;;;;;;;;;5067747;28;20047;-83
2022/06/21 05:27:56;;;;;;;9.75;2.53;;;;;;;;;;5067072;28;20048;-85
2022/06/21 05:30:44;;;;;;;10.15;2.42;;;;;;;;;;5100039;28;20052;-85
2022/06/21 05:33:20;;;;;;;10.18;2.58;;;;;;;;;;5097041;28;20157;-84
2022/06/21 05:35:47;;;;;;;15.43;2.65;;;;;;;;;;5065574;28;20167;-84
2022/06/21 05:38:23;;;;;;;17.42;3.33;;;;;;;;;;5060055;28;20045;-84
2022/06/21 05:40:58;;;;;;;15.93;2.67;;;;;;;;;;5064439;28;20041;-82
2022/06/21 05:43:33;;;;;;;13.25;2.30;;;;;;;;;;5065317;28;20616;-83
2022/06/21 05:46:09;;;;;;;12.48;2.85;;;;;;;;;;5070241;28;20045;-83
2022/06/21 05:49:08;;;;;;;13.40;2.58;;;;;;;;;;5065287;28;20037;-83
2022/06/21 05:51:35;;;;;;;12.35;2.83;;;;;;;;;;5064988;28;20052;-84
2022/06/21 05:54:13;;;;;;;11.63;2.75;;;;;;;;;;5063050;28;20068;-84
2022/06/21 05:56:42;;;;;;;11.50;2.70;;;;;;;;;;5065620;28;20040;-84
2022/06/21 05:59:20;;;;;;;14.57;2.30;;;;;;;;;;5063305;28;20035;-83
2022/06/21 06:01:58;;;;;;;9.63;2.17;;;;;;;;;;5061540;28;20133;-84
2022/06/21 06:04:33;;;;;;;10.88;2.20;;;;;;;;;;5063844;28;20045;-84
2022/06/21 06:07:03;;;;;;;8.55;2.42;;;;;;;;;;5066219;28;20044;-83
2022/06/21 06:09:39;;;;;;;11.07;2.70;;;;;;;;;;5063468;28;20036;-83
2022/06/21 06:12:34;;;;;;;12.85;2.33;;;;;;;;;;5067168;28;20048;-84
2022/06/21 06:15:10;;;;;;;9.13;2.17;;;;;;;;;;5065177;28;20036;-83
2022/06/21 06:17:53;;;;;;;8.02;2.47;;;;;;;;;;5072961;28;20486;-83
2022/06/21 06:20:27;;;;;;;5.93;2.50;;;;;;;;;;5096736;28;20040;-83
2022/06/21 06:22:57;;;;;;;5.63;1.80;;;;;;;;;;5068793;28;20048;-83
2022/06/21 06:25:58;;;;;;;9.82;2.03;;;;;;;;;;5060756;28;20063;-84
2022/06/21 06:28:38;;;;;;;8.15;2.10;;;;;;;;;;5065137;28;20039;-83
2022/06/21 06:31:40;;;;;;;8.63;2.20;;;;;;;;;;5060119;28;20036;-84
2022/06/21 06:34:35;;;;;;;8.43;2.17;;;;;;;;;;5057021;28;20417;-83
2022/06/21 06:37:08;;;;;;;13.45;2.10;;;;;;;;;;5086068;28;20047;-84
2022/06/21 06:39:36;;;;;;;9.68;2.13;;;;;;;;;;5078394;28;20028;-83
2022/06/21 06:42:11;;;;;;;10.75;2.45;;;;;;;;;;5061439;28;20037;-84
2022/06/21 06:45:17;;;;;;;9.52;2.17;;;;;;;;;;5057740;28;20047;-83
2022/06/21 06:47:51;;;;;;;8.82;2.30;;;;;;;;;;5074163;28;20056;-87
2022/06/21 06:50:29;;;;;;;6.38;1.70;;;;;;;;;;5063572;28;20028;-83
2022/06/21 06:53:13;;;;;;;5.80;2.00;;;;;;;;;;5059378;28;20138;-84
2022/06/21 06:55:50;;;;;;;9.07;1.65;;;;;;;;;;5090522;28;20064;-84
2022/06/21 06:58:30;;;;;;;7.63;1.80;;;;;;;;;;5059133;28;20040;-84
2022/06/21 07:01:03;;;;;;;5.82;2.33;;;;;;;;;;5073267;28;20116;-85
2022/06/21 07:03:36;;;;;;;8.15;1.92;;;;;;;;;;5061156;28;20051;-85
2022/06/21 07:06:18;;;;;;;6.40;2.20;;;;;;;;;;5058268;28;20456;-84
2022/06/21 07:09:02;;;;;;;6.95;2.17;;;;;;;;;;5060087;28;20041;-84
2022/06/21 07:11:55;;;;;;;11.55;2.13;;;;;;;;;;5062791;28;20067;-84
2022/06/21 07:14:26;;;;;;;9.15;2.10;;;;;;;;;;5043785;28;20055;-84
2022/06/21 07:17:34;;;;;;;6.82;2.05;;;;;;;;;;5055353;28;20442;-84
2022/06/21 07:20:45;;;;;;;5.40;1.75;;;;;;;;;;5038781;28;20075;-85
2022/06/21 07:23:21;;;;;;;5.13;1.60;;;;;;;;;;5061968;28;20294;-84
2022/06/21 07:26:17;;;;;;;9.10;1.77;;;;;;;;;;5060320;28;20036;-85
2022/06/21 07:29:01;;;;;;;6.38;2.10;;;;;;;;;;5059598;28;20129;-84
2022/06/21 07:31:41;;;;;;;12.18;3.38;;;;;;;;;;5061342;28;20045;-85
2022/06/21 07:34:28;;;;;;;6.15;1.75;;;;;;;;;;5059744;28;20049;-85
2022/06/21 07:37:04;;;;;;;13.40;2.47;;;;;;;;;;5059867;28;20051;-85
2022/06/21 07:39:52;;;;;;;8.00;1.73;;;;;;;;;;5059438;28;20054;-85
2022/06/21 07:42:49;;;;;;;11.85;2.00;;;;;;;;;;5058970;28;20037;-85
2022/06/21 07:45:26;;;;;;;6.03;1.60;;;;;;;;;;5081419;28;20128;-85
2022/06/21 07:48:00;;;;;;;7.93;1.63;;;;;;;;;;5054004;28;20048;-85
2022/06/21 07:50:44;;;;;;;6.93;1.55;;;;;;;;;;5063639;28;20067;-85
2022/06/21 07:53:22;;;;;;;7.40;1.67;;;;;;;;;;5059939;28;20040;-85
2022/06/21 07:56:01;;;;;;;7.53;1.70;;;;;;;;;;5061645;28;20047;-84
2022/06/21 07:59:03;;;;;;;4.72;1.77;;;;;;;;;;5061024;28;20041;-84
2022/06/21 08:07:43;;;;;;;9.38;1.50;;;;;;;;;;5088724;28;20127;-84
2022/06/21 08:10:19;;;;;;;6.85;1.48;;;;;;;;;;5071367;28;20040;-83
2022/06/21 08:12:48;;;;;;;10.75;2.00;;;;;;;;;;5058953;28;20576;-84
2022/06/21 08:15:16;;;;;;;13.50;2.10;;;;;;;;;;5059598;28;20086;-83
2022/06/21 08:18:01;;;;;;;6.03;1.90;;;;;;;;;;5056403;28;20040;-85
2022/06/21 08:20:46;;;;;;;6.05;1.70;;;;;;;;;;5063270;28;20086;-84
2022/06/21 08:23:19;;;;;;;4.30;1.45;;;;;;;;;;5060638;28;20106;-83
2022/06/21 08:26:24;;;;;;;9.40;1.50;;;;;;;;;;5062305;28;20040;-84
2022/06/21 08:29:03;;;;;;;7.82;2.50;;;;;;;;;;5062583;28;20540;-84
2022/06/21 08:31:42;;;;;;;7.97;1.30;;;;;;;;;;5060597;28;20524;-84
2022/06/21 08:34:20;;;;;;;8.32;1.98;;;;;;;;;;5063480;28;20036;-84
2022/06/21 08:37:24;;;;;;;4.07;1.35;;;;;;;;;;5062440;28;20040;-84
2022/06/21 08:40:29;;;;;;;4.07;1.20;;;;;;;;;;5094012;28;20414;-84
2022/06/21 08:43:01;;;;;;;8.10;1.55;;;;;;;;;;5062147;28;20040;-85
2022/06/21 08:45:53;;;;;;;5.45;1.50;;;;;;;;;;5058628;28;20040;-84
2022/06/21 08:48:43;;;;;;;6.63;1.50;;;;;;;;;;5063081;28;20131;-84
2022/06/21 08:54:41;;;;;;;6.05;1.38;;;;;;;;;;5063918;28;20525;-84
2022/06/21 08:57:21;;;;;;;7.50;1.20;;;;;;;;;;5062473;28;20039;-84
2022/06/21 09:00:04;;;;;;;5.10;1.45;;;;;;;;;;5051129;28;20078;-84
2022/06/21 09:02:59;;;;;;;5.88;1.88;;;;;;;;;;5058615;28;20092;-84
2022/06/21 09:05:37;;;;;;;4.32;1.20;;;;;;;;;;5059149;28;20532;-85
2022/06/21 09:08:37;;;;;;;9.43;1.55;;;;;;;;;;5062171;28;20601;-83
2022/06/21 09:11:22;;;;;;;5.50;1.20;;;;;;;;;;5045951;28;20062;-84
2022/06/21 09:14:10;;;;;;;5.40;1.38;;;;;;;;;;5057092;28;20170;-83
2022/06/21 09:16:43;;;;;;;4.95;1.33;;;;;;;;;;5060474;28;20120;-84
2022/06/21 09:19:20;;;;;;;3.15;0.90;;;;;;;;;;5066461;28;20063;-84
2022/06/21 09:22:09;;;;;;;5.38;1.42;;;;;;;;;;5054300;28;20201;-84
2022/06/21 09:24:50;;;;;;;4.90;1.20;;;;;;;;;;5062012;28;20170;-84
2022/06/21 09:27:24;;;;;;;7.28;1.38;;;;;;;;;;5057211;28;20072;-83
2022/06/21 09:29:53;;;;;;;4.35;1.42;;;;;;;;;;5059734;28;20036;-84
2022/06/21 09:32:37;;;;;;;4.65;1.17;;;;;;;;;;5046133;28;20135;-84
2022/06/21 09:35:46;;;;;;;7.57;1.33;;;;;;;;;;5092857;28;20521;-84
2022/06/21 09:38:31;;;;;;;10.48;1.83;;;;;;;;;;5092791;28;20494;-84
2022/06/21 09:41:32;;;;;;;8.13;1.48;;;;;;;;;;5076312;28;20052;-84
2022/06/21 09:44:39;;;;;;;3.42;1.38;;;;;;;;;;5058522;28;20040;-85
2022/06/21 09:47:41;;;;;;;4.85;1.40;;;;;;;;;;5055234;28;20032;-85
2022/06/21 09:50:40;;;;;;;3.70;1.60;;;;;;;;;;5062498;28;20098;-84
2022/06/21 09:53:27;;;;;;;2.77;1.00;;;;;;;;;;5062648;28;20060;-84
2022/06/21 09:56:07;;;;;;;7.90;1.50;;;;;;;;;;5000727;28;20058;-83
2022/06/21 09:58:54;;;;;;;3.78;1.10;;;;;;;;;;5000854;28;20072;-84
2022/06/21 10:01:56;;;;;;;4.30;1.00;;;;;;;;;;4996337;28;20061;-83
2022/06/21 10:04:36;;;;;;;6.78;1.65;;;;;;;;;;4999328;28;20132;-83
2022/06/21 10:07:08;;;;;;;5.55;1.10;;;;;;;;;;4998089;28;20057;-84
2022/06/21 10:09:58;;;;;;;6.70;1.80;;;;;;;;;;4998799;28;20260;-85
2022/06/21 10:12:43;;;;;;;5.40;1.20;;;;;;;;;;4999752;28;20045;-85
2022/06/21 10:15:34;;;;;;;6.60;1.20;;;;;;;;;;5001360;28;20046;-84
2022/06/21 10:18:27;;;;;;;4.78;1.10;;;;;;;;;;5002119;28;20523;-84
2022/06/21 10:21:44;;;;;;;4.93;1.38;;;;;;;;;;4988045;28;20060;-85
2022/06/21 10:24:37;;;;;;;5.85;1.23;;;;;;;;;;4983400;28;20097;-85
2022/06/21 10:27:27;;;;;;;2.35;1.00;;;;;;;;;;4997973;28;20089;-85
2022/06/21 10:30:16;;;;;;;3.90;1.17;;;;;;;;;;4966748;28;20156;-84
2022/06/21 10:33:11;;;;;;;4.50;1.10;;;;;;;;;;5020857;28;20052;-84
2022/06/21 10:36:01;;;;;;;4.85;1.00;;;;;;;;;;5047585;28;20044;-84
2022/06/21 10:38:38;;;;;;;6.90;1.40;;;;;;;;;;5063161;28;20060;-84
2022/06/21 10:45:01;;;;;;;5.53;1.20;;;;;;;;;;5059641;28;20040;-84
2022/06/21 10:47:52;;;;;;;7.35;1.27;;;;;;;;;;5055240;28;20177;-84
2022/06/21 10:50:45;;;;;;;3.42;1.00;;;;;;;;;;5064199;28;20159;-83
2022/06/21 10:53:17;;;;;;;5.13;1.38;;;;;;;;;;5062505;28;20052;-83
2022/06/21 11:01:17;;;;;;;9.05;1.83;;;;;;;;;;5059614;28;20045;-83
2022/06/21 11:02:56;;;;;;;5.07;1.42;;;;;;;;;;5062240;28;20048;-84
2022/06/21 11:06:11;;;;;;;9.25;1.30;;;;;;;;;;5091029;28;20708;-83
2022/06/21 11:09:03;;;;;;;4.00;1.33;;;;;;;;;;5064671;28;20040;-84
2022/06/21 11:11:49;;;;;;;3.85;1.30;;;;;;;;;;5059855;28;20474;-84
2022/06/21 11:14:33;;;;;;;3.70;1.50;;;;;;;;;;5061100;28;21020;-84
2022/06/21 11:17:33;;;;;;;6.82;1.33;;;;;;;;;;5062071;28;20048;-84
2022/06/21 11:20:30;;;;;;;6.80;1.95;;;;;;;;;;5063850;28;20079;-84
2022/06/21 11:23:04;;;;;;;5.13;1.48;;;;;;;;;;5059954;28;20045;-83
2022/06/21 11:25:46;;;;;;;9.10;1.30;;;;;;;;;;5062078;28;20494;-84
2022/06/21 11:28:36;;;;;;;2.65;1.20;;;;;;;;;;5059888;28;20781;-84
2022/06/21 11:31:20;;;;;;;5.22;1.42;;;;;;;;;;5062039;28;20114;-83
2022/06/21 11:34:08;;;;;;;3.70;1.30;;;;;;;;;;5057328;28;20056;-84
2022/06/21 11:37:02;;;;;;;6.97;1.30;;;;;;;;;;5092249;28;20044;-84
2022/06/21 11:39:45;;;;;;;8.13;1.25;;;;;;;;;;5060166;28;20403;-83
2022/06/21 11:42:53;;;;;;;5.72;1.52;;;;;;;;;;5059573;28;20920;-84
2022/06/21 11:45:43;;;;;;;3.92;1.30;;;;;;;;;;5056966;28;20061;-84
2022/06/21 11:49:08;;;;;;;5.15;1.30;;;;;;;;;;5060906;28;20452;-84
2022/06/21 11:52:03;;;;;;;3.85;1.40;;;;;;;;;;5004406;28;20053;-84
2022/06/21 11:54:43;;;;;;;5.57;1.42;;;;;;;;;;5021498;28;20495;-84
2022/06/21 11:57:16;;;;;;;3.75;1.27;;;;;;;;;;5021460;28;20051;-84
2022/06/21 11:59:58;;;;;;;3.40;1.33;;;;;;;;;;5023574;28;20061;-86
2022/06/21 12:02:44;;;;;;;6.10;1.13;;;;;;;;;;5005599;28;20045;-84
2022/06/21 12:05:39;;;;;;;3.53;1.27;;;;;;;;;;5023892;28;20037;-83
2022/06/21 12:08:27;;;;;;;2.65;1.05;;;;;;;;;;5022772;28;20053;-84
2022/06/21 12:11:12;;;;;;;5.38;1.50;;;;;;;;;;5023865;28;20041;-84
2022/06/21 12:14:32;;;;;;;3.83;1.30;;;;;;;;;;5022927;28;20073;-83
2022/06/21 12:17:05;;;;;;;5.15;1.33;;;;;;;;;;5002660;28;20048;-83
2022/06/21 12:19:38;;;;;;;3.58;1.30;;;;;;;;;;5005572;28;20128;-83
2022/06/21 12:22:24;;;;;;;5.75;1.38;;;;;;;;;;5024544;28;20056;-83
2022/06/21 12:24:53;;;;;;;7.13;1.52;;;;;;;;;;5041034;28;20055;-84
2022/06/21 12:27:22;;;;;;;5.78;1.30;;;;;;;;;;5043234;28;20048;-83
2022/06/21 12:29:49;;;;;;;6.00;1.50;;;;;;;;;;5041560;28;20045;-84
2022/06/21 12:32:22;;;;;;;5.93;1.45;;;;;;;;;;5039921;28;20148;-84
2022/06/21 12:35:03;;;;;;;6.38;1.25;;;;;;;;;;5041702;28;20138;-84
2022/06/21 12:37:37;;;;;;;5.40;1.65;;;;;;;;;;5057830;28;20506;-84
2022/06/21 12:40:20;;;;;;;4.00;1.35;;;;;;;;;;5041657;28;20037;-84
2022/06/21 12:43:33;;;;;;;5.22;1.38;;;;;;;;;;5039463;28;20114;-85
2022/06/21 12:46:07;;;;;;;3.58;1.38;;;;;;;;;;5037985;28;20068;-83
2022/06/21 12:48:47;;;;;;;3.55;1.40;;;;;;;;;;5058935;28;20041;-83
2022/06/21 12:51:28;;;;;;;4.38;1.35;;;;;;;;;;5055265;28;20040;-84
2022/06/21 12:54:17;;;;;;;3.08;1.30;;;;;;;;;;5078616;28;20056;-83
2022/06/21 12:56:54;;;;;;;2.58;1.08;;;;;;;;;;5093864;28;20044;-83
2022/06/21 12:59:41;;;;;;;6.25;1.40;;;;;;;;;;5066499;28;20036;-83
2022/06/21 13:02:49;;;;;;;4.85;1.27;;;;;;;;;;5063000;28;20051;-83
2022/06/21 13:05:46;;;;;;;4.25;1.30;;;;;;;;;;5062107;28;20040;-83
2022/06/21 13:08:19;;;;;;;7.00;1.30;;;;;;;;;;5067094;28;20040;-83
2022/06/21 13:11:25;;;;;;;4.25;1.33;;;;;;;;;;5065221;28;20600;-87
2022/06/21 13:14:12;;;;;;;6.30;1.40;;;;;;;;;;5066545;28;20040;-85
2022/06/21 13:17:04;;;;;;;4.45;1.48;;;;;;;;;;5064716;28;20498;-85
2022/06/21 13:19:56;;;;;;;5.18;1.38;;;;;;;;;;5081596;28;20402;-84
2022/06/21 13:23:02;;;;;;;5.88;1.30;;;;;;;;;;5063941;28;20045;-84
2022/06/21 13:25:52;;;;;;;4.95;2.03;;;;;;;;;;5065207;28;21619;-84
2022/06/21 13:28:48;;;;;;;7.40;1.40;;;;;;;;;;5064649;28;20565;-84
2022/06/21 13:31:34;;;;;;;6.05;1.30;;;;;;;;;;5064775;28;20495;-84
2022/06/21 13:34:37;;;;;;;6.18;1.48;;;;;;;;;;5082201;28;20036;-84
2022/06/21 13:37:48;;;;;;;6.05;1.30;;;;;;;;;;5062758;28;21750;-84
2022/06/21 13:40:27;;;;;;;6.00;1.35;;;;;;;;;;5035876;28;20546;-84
2022/06/21 13:43:13;;;;;;;4.40;1.45;;;;;;;;;;5036331;28;20049;-84
2022/06/21 13:45:44;;;;;;;4.65;1.20;;;;;;;;;;5036976;28;20525;-84
2022/06/21 13:48:39;;;;;;;3.17;1.25;;;;;;;;;;5036133;28;20103;-84
2022/06/21 13:51:13;;;;;;;4.40;1.45;;;;;;;;;;5035908;28;20053;-84
2022/06/21 13:53:49;;;;;;;4.05;1.25;;;;;;;;;;5035301;28;20041;-84
2022/06/21 13:57:15;;;;;;;4.32;1.80;;;;;;;;;;5035314;28;20064;-84
2022/06/21 13:59:47;;;;;;;5.00;1.25;;;;;;;;;;5025481;28;20053;-84
2022/06/21 14:02:49;;;;;;;6.53;1.75;;;;;;;;;;5034648;28;20065;-84
2022/06/21 14:05:48;;;;;;;4.93;1.50;;;;;;;;;;5027393;28;20052;-84
2022/06/21 14:08:30;;;;;;;6.80;1.42;;;;;;;;;;5036315;28;20049;-84
2022/06/21 14:11:20;;;;;;;6.43;1.40;;;;;;;;;;5051308;28;20461;-84
2022/06/21 14:14:22;;;;;;;5.55;1.50;;;;;;;;;;5064259;28;20047;-84
2022/06/21 14:16:55;;;;;;;6.20;1.50;;;;;;;;;;5041729;28;20525;-87
2022/06/21 14:19:56;;;;;;;4.07;1.50;;;;;;;;;;5039045;28;20148;-85
2022/06/21 14:22:29;;;;;;;6.28;1.50;;;;;;;;;;5039936;28;20068;-85
2022/06/21 14:25:06;;;;;;;4.87;1.37;;;;;;;;;;5042503;28;20122;-85
2022/06/21 14:28:12;;;;;;;4.22;1.50;;;;;;;;;;5039827;28;20337;-85
2022/06/21 14:30:48;;;;;;;7.03;1.52;;;;;;;;;;5040723;28;20041;-85
2022/06/21 14:33:44;;;;;;;4.78;1.60;;;;;;;;;;5042882;28;20186;-85
2022/06/21 14:36:17;;;;;;;3.83;1.30;;;;;;;;;;5042995;28;20052;-85
2022/06/21 14:40:08;;;;;;;5.47;1.52;;;;;;;;;;5031674;28;20391;-85
2022/06/21 14:42:51;;;;;;;5.35;1.75;;;;;;;;;;5040382;28;20053;-85
2022/06/21 14:45:31;;;;;;;3.72;1.40;;;;;;;;;;5041507;28;20499;-85
2022/06/21 14:48:31;;;;;;;4.43;1.23;;;;;;;;;;5039628;28;20061;-85
2022/06/21 14:51:12;;;;;;;5.30;1.48;;;;;;;;;;5038076;28;20051;-85
2022/06/21 14:54:16;;;;;;;5.28;1.30;;;;;;;;;;5048469;28;20103;-85
2022/06/21 14:57:07;;;;;;;4.63;1.40;;;;;;;;;;5061654;28;20055;-85
2022/06/21 15:00:14;;;;;;;4.38;1.45;;;;;;;;;;5077737;28;20056;-85
2022/06/21 15:02:59;;;;;;;8.38;1.75;;;;;;;;;;5039937;28;20049;-85
2022/06/21 15:06:01;;;;;;;;;;;;;;;;;;5023390;28;20132;-85
2022/06/21 15:08:57;;;;;;;5.15;1.42;;;;;;;;;;5043284;28;19947;-85
2022/06/21 15:11:52;;;;;;;3.65;1.50;;;;;;;;;;5040396;28;20139;-85
2022/06/21 15:14:24;;;;;;;3.70;1.30;;;;;;;;;;5042303;28;20127;-85
2022/06/21 15:17:34;;;;;;;4.05;1.40;;;;;;;;;;5041907;28;20063;-85
2022/06/21 15:20:26;;;;;;;4.90;1.40;;;;;;;;;;5040135;28;20041;-85
2022/06/21 15:22:56;;;;;;;3.28;1.70;;;;;;;;;;5040524;28;20053;-85
2022/06/21 15:25:33;;;;;;;5.88;1.33;;;;;;;;;;5023325;28;20521;-85
2022/06/21 15:28:12;;;;;;;7.07;1.67;;;;;;;;;;5035062;28;20071;-91
2022/06/21 15:30:47;;;;;;;5.30;1.27;;;;;;;;;;5021997;28;20057;-87
2022/06/21 15:33:54;;;;;;;4.20;1.40;;;;;;;;;;5027820;28;20048;-91
2022/06/21 15:36:45;;;;;;;5.85;1.60;;;;;;;;;;5035764;28;20055;-91
2022/06/21 15:39:13;;;;;;;4.95;1.40;;;;;;;;;;5091025;28;20123;-89
2022/06/21 15:41:55;;;;;;;5.57;1.58;;;;;;;;;;5094001;28;20048;-87
2022/06/21 15:45:04;;;;;;;3.55;1.50;;;;;;;;;;5061327;28;20033;-90
2022/06/21 15:50:56;;;;;;;;;;;;;;;;;;5063004;28;20033;-88
2022/06/21 15:53:32;;;;;;;3.70;1.48;;;;;;;;;;5060936;28;20025;-84
2022/06/21 15:56:05;;;;;;;3.63;1.50;;;;;;;;;;5062228;28;20662;-85
2022/06/21 15:58:54;;;;;;;4.57;1.60;;;;;;;;;;5061630;28;20689;-84
2022/06/21 16:01:38;;;;;;;3.40;1.65;;;;;;;;;;5062354;28;20581;-86
2022/06/21 16:04:29;;;;;;;5.35;1.40;;;;;;;;;;5065121;28;20616;-84
2022/06/21 16:07:19;;;;;;;5.03;1.50;;;;;;;;;;5090745;28;20041;-84
2022/06/21 16:09:51;;;;;;;4.10;1.50;;;;;;;;;;5085668;28;20044;-84
2022/06/21 16:12:31;;;;;;;5.53;1.88;;;;;;;;;;5065062;28;20040;-84
2022/06/21 16:15:28;;;;;;;7.18;1.60;;;;;;;;;;5064916;28;20036;-84
2022/06/21 16:18:02;;;;;;;5.47;1.50;;;;;;;;;;5057945;28;20052;-84
2022/06/21 16:20:42;;;;;;;6.95;2.17;;;;;;;;;;5071223;28;20045;-84
2022/06/21 16:23:28;;;;;;;3.73;1.50;;;;;;;;;;5069720;28;20068;-84
2022/06/21 16:26:25;;;;;;;5.53;2.15;;;;;;;;;;5071755;28;20513;-84
2022/06/21 16:29:03;;;;;;;5.40;1.70;;;;;;;;;;5065988;28;20688;-84
2022/06/21 16:34:39;;;;;;;2.83;1.40;;;;;;;;;;5064798;28;20045;-84
2022/06/21 16:37:24;;;;;;;7.07;1.70;;;;;;;;;;5062307;28;20512;-87
2022/06/21 16:40:03;;;;;;;4.53;1.65;;;;;;;;;;5062431;28;20044;-86
2022/06/21 16:42:58;;;;;;;6.13;1.45;;;;;;;;;;5059012;28;20040;-86
2022/06/21 16:45:37;;;;;;;3.53;1.50;;;;;;;;;;5064914;28;20050;-86
2022/06/21 16:48:21;;;;;;;6.10;1.70;;;;;;;;;;5095798;28;20517;-86
2022/06/21 16:51:12;;;;;;;5.07;1.92;;;;;;;;;;5067353;28;20048;-85
2022/06/21 16:53:47;;;;;;;4.38;1.50;;;;;;;;;;5065998;28;20044;-85